Flight Track Log - Related Links

Times and Time Zones

All times are in EDT time to prevent confusion due to time zone crossing. See the USC110 flight status page for this flight to view local times or setup timezone preferences in your user account.

Time Position Orientation Groundspeed Altitude Reporting Facility
EDT Latitude Longitude Course Direction KTS MPH feet Rate Location/Type
Wed 01:10:51 AM 35.2222 -80.9397 347° North 72 83 1,500  Level Atlanta Center
Wed 01:12:10 AM 35.2536 -80.9486 347° North 95 109 3,200 1,371 Climbing Atlanta Center
Wed 01:13:11 AM 35.2728 -80.9581 338° Northwest 88 101 4,700 1,357 Climbing Atlanta Center
Wed 01:14:05 AM 35.2958 -80.9672 342° North 89 102 5,800 1,119 Climbing Atlanta Center
Wed 01:16:08 AM 35.3486 -80.9833 346° North 92 106 8,000 689 Climbing Atlanta Center
Wed 01:17:08 AM 35.3908 -81.0019 340° North 123 142 7,900 -50 Descending Atlanta Center
Wed 01:18:08 AM 35.4369 -81.0156 346° North 159 183 7,900  Level Atlanta Center
Wed 01:19:08 AM 35.4772 -81.0369 337° Northwest 164 189 7,900  Level Atlanta Center
Wed 01:20:08 AM 35.5214 -81.0558 341° North 164 189 7,900  Level Atlanta Center
Wed 01:21:08 AM 35.5656 -81.0747 341° North 169 194 7,900  Level Atlanta Center
Wed 01:22:08 AM 35.6097 -81.0908 343° North 169 194 7,900  Level Atlanta Center
Wed 01:23:08 AM 35.6542 -81.1097 341° North 169 194 7,900  Level Atlanta Center
Wed 01:24:08 AM 35.6983 -81.1286 341° North 169 194 7,900  Level Atlanta Center
Wed 01:25:08 AM 35.7383 -81.1478 339° North 169 194 7,900  Level Atlanta Center
Wed 01:26:08 AM 35.7847 -81.1639 344° North 169 194 7,900  Level Atlanta Center
Wed 01:27:08 AM 35.8269 -81.1806 342° North 164 189 7,900  Level Atlanta Center
Wed 01:28:08 AM 35.8689 -81.1969 342° North 164 189 7,900 50 Level Atlanta Center
Wed 01:29:08 AM 35.9111 -81.2161 340° North 159 183 8,000  Climbing Atlanta Center
Wed 01:30:08 AM 35.9511 -81.2325 342° North 153 176 7,900  Descending Atlanta Center
Wed 01:31:08 AM 35.9953 -81.2517 341° North 158 182 8,000 50 Climbing Atlanta Center
Wed 01:32:08 AM 36.0375 -81.2681 343° North 158 182 8,000  Level Atlanta Center
Wed 01:33:08 AM 36.0753 -81.2872 338° Northwest 158 182 8,000  Level Atlanta Center
Wed 01:34:08 AM 36.1194 -81.3039 343° North 158 182 8,000 50 Level Atlanta Center
Wed 01:35:08 AM 36.1617 -81.3203 343° North 158 182 8,100 50 Climbing Atlanta Center
Wed 01:36:08 AM 36.2039 -81.3369 342° North 153 176 8,100 -50 Level Atlanta Center
Wed 01:37:08 AM 36.2458 -81.3561 340° North 153 176 8,000  Descending Atlanta Center
Wed 01:38:08 AM 36.2858 -81.3728 341° North 153 176 8,100 50 Climbing Atlanta Center
Wed 01:39:08 AM 36.3300 -81.3919 341° North 153 176 8,100 -50 Level Atlanta Center
Wed 01:40:08 AM 36.3764 -81.4086 344° North 153 176 8,000 -50 Descending Atlanta Center
Wed 01:41:08 AM 36.4164 -81.4306 336° Northwest 153 176 8,000 50 Level Atlanta Center
Wed 01:42:08 AM 36.4583 -81.4444 345° North 153 176 8,100  Climbing Atlanta Center
Wed 01:43:08 AM 36.5025 -81.4611 343° North 153 176 8,000 -50 Descending Atlanta Center
Wed 01:44:08 AM 36.5425 -81.4781 341° North 153 176 8,000  Level Atlanta Center
Wed 01:46:39 AM 36.6428 -81.5231 340° North 160 184 8,000 28 Level Indianapolis Center
Wed 01:47:39 AM 36.6856 -81.5411 341° North 162 186 8,100  Climbing Indianapolis Center
Wed 01:48:39 AM 36.7258 -81.5567 343° North 156 180 8,000 -50 Descending Indianapolis Center
Wed 01:49:40 AM 36.7672 -81.5739 342° North 155 178 8,000  Level Indianapolis Center
Wed 01:50:40 AM 36.8156 -81.5956 340° North 158 182 8,000  Level Indianapolis Center
Wed 01:51:40 AM 36.8572 -81.6117 343° North 157 181 8,000  Level Indianapolis Center
Wed 01:52:41 AM 36.8978 -81.6311 339° North 157 181 8,000  Level Indianapolis Center
Wed 01:53:41 AM 36.9422 -81.6483 343° North 162 186 8,000  Level Indianapolis Center
Wed 01:54:41 AM 36.9833 -81.6661 341° North 159 183 8,000  Level Indianapolis Center
Wed 01:55:42 AM 37.0258 -81.6831 342° North 159 183 8,000  Level Indianapolis Center
Wed 01:56:42 AM 37.0686 -81.7008 342° North 161 185 8,000  Level Indianapolis Center
Wed 01:57:42 AM 37.1097 -81.7189 341° North 158 182 8,000  Level Indianapolis Center
Wed 01:58:43 AM 37.1517 -81.7378 340° North 159 183 8,000  Level Indianapolis Center
Wed 01:59:43 AM 37.1939 -81.7550 342° North 160 184 8,000  Level Indianapolis Center
Wed 02:00:43 AM 37.2342 -81.7739 340° North 157 181 8,000  Level Indianapolis Center
Wed 02:01:43 AM 37.2761 -81.7906 342° North 157 181 8,000  Level Indianapolis Center
Wed 02:02:44 AM 37.3172 -81.8092 340° North 156 180 8,000  Level Indianapolis Center
Wed 02:03:44 AM 37.3594 -81.8258 343° North 158 182 8,000  Level Indianapolis Center
Wed 02:04:44 AM 37.4011 -81.8461 339° North 160 184 8,000  Level Indianapolis Center
Wed 02:05:45 AM 37.4428 -81.8628 342° North 157 181 8,000  Level Indianapolis Center
Wed 02:06:45 AM 37.4847 -81.8811 341° North 159 183 8,000  Level Indianapolis Center
Wed 02:07:45 AM 37.5269 -81.8967 344° North 157 181 8,000  Level Indianapolis Center
Wed 02:08:45 AM 37.5692 -81.9183 338° Northwest 161 185 8,000  Level Indianapolis Center
Wed 02:09:46 AM 37.6106 -81.9367 341° North 159 183 8,000  Level Indianapolis Center
Wed 02:10:46 AM 37.6533 -81.9536 343° North 160 184 8,000  Level Indianapolis Center
Wed 02:11:46 AM 37.6956 -81.9722 341° North 160 184 8,000  Level Indianapolis Center
Wed 02:12:46 AM 37.7381 -81.9903 341° North 160 184 8,000  Level Indianapolis Center
Wed 02:13:47 AM 37.7803 -82.0092 341° North 161 185 8,000  Level Indianapolis Center
Wed 02:14:47 AM 37.8225 -82.0286 340° North 163 188 8,000 -50 Level Indianapolis Center
Wed 02:15:47 AM 37.8639 -82.0467 341° North 165 190 7,900 -50 Descending Indianapolis Center
Wed 02:16:47 AM 37.9069 -82.0656 341° North 164 189 7,900  Level Indianapolis Center
Wed 02:17:47 AM 37.9489 -82.0853 340° North 162 186 7,900  Level Indianapolis Center
Wed 02:18:48 AM 37.9917 -82.1042 341° North 162 186 7,900  Level Indianapolis Center
Wed 02:19:48 AM 38.0350 -82.1233 341° North 164 189 7,900  Level Indianapolis Center
Wed 02:20:48 AM 38.0783 -82.1419 341° North 164 189 7,900  Level Indianapolis Center
Wed 02:21:48 AM 38.1194 -82.1583 343° North 157 181 7,900  Level Indianapolis Center
Wed 02:22:48 AM 38.1611 -82.1781 340° North 158 182 7,900  Level Indianapolis Center
Wed 02:23:49 AM 38.2031 -82.1958 342° North 159 183 7,900  Level Indianapolis Center
Wed 02:24:49 AM 38.2450 -82.2150 340° North 160 184 7,900  Level Indianapolis Center
Wed 02:25:49 AM 38.2867 -82.2331 341° North 158 182 7,900  Level Indianapolis Center
Wed 02:26:49 AM 38.3283 -82.2519 340° North 159 183 7,900  Level Indianapolis Center
Wed 02:27:49 AM 38.3692 -82.2714 340° North 156 180 7,900  Level Indianapolis Center
Wed 02:28:50 AM 38.4114 -82.2897 341° North 159 183 7,900  Level Indianapolis Center
Wed 02:29:50 AM 38.4536 -82.3083 341° North 159 183 7,900  Level Indianapolis Center
Wed 02:30:50 AM 38.4956 -82.3256 342° North 158 182 7,900  Level Indianapolis Center
Wed 02:31:50 AM 38.5367 -82.3453 339° North 158 182 7,900  Level Indianapolis Center
Wed 02:32:51 AM 38.5786 -82.3639 341° North 159 183 7,900  Level Indianapolis Center
Wed 02:33:51 AM 38.6208 -82.3831 340° North 160 184 7,900  Level Indianapolis Center
Wed 02:34:51 AM 38.6622 -82.4011 341° North 158 182 7,900  Level Indianapolis Center
Wed 02:35:51 AM 38.7028 -82.4194 341° North 156 180 7,900  Level Indianapolis Center
Wed 02:36:51 AM 38.7436 -82.4383 340° North 154 177 7,900  Level Indianapolis Center
Wed 02:37:52 AM 38.7850 -82.4556 342° North 156 180 7,900  Level Indianapolis Center
Wed 02:38:52 AM 38.8261 -82.4756 339° North 157 181 7,900  Level Indianapolis Center
Wed 02:39:52 AM 38.8689 -82.4939 342° North 160 184 7,900  Level Indianapolis Center
Wed 02:40:52 AM 38.9092 -82.5117 341° North 155 178 7,900  Level Indianapolis Center
Wed 02:41:53 AM 38.9494 -82.5311 339° North 154 177 7,900  Level Indianapolis Center
Wed 02:42:53 AM 38.9911 -82.5489 342° North 157 181 7,900  Level Indianapolis Center
Wed 02:43:53 AM 39.0308 -82.5681 339° North 155 178 7,900  Level Indianapolis Center
Wed 02:44:53 AM 39.0728 -82.5853 342° North 156 180 7,900  Level Indianapolis Center
Wed 02:45:53 AM 39.1136 -82.6050 339° North 158 182 7,900  Level Indianapolis Center
Wed 02:46:54 AM 39.1536 -82.6267 337° Northwest 157 181 7,900 50 Level Indianapolis Center
Wed 02:47:54 AM 39.1972 -82.6450 342° North 156 180 8,000 50 Climbing Indianapolis Center
Wed 02:48:54 AM 39.2378 -82.6639 340° North 154 177 8,000  Level Indianapolis Center
Wed 02:49:54 AM 39.2806 -82.6803 343° North 157 181 8,000  Level Indianapolis Center
Wed 02:50:41 AM 39.3114 -82.6975 337° Northwest 157 181 8,000  Level Indianapolis Center
Wed 02:51:17 AM 39.3358 -82.7083 341° North 156 180 8,000  Level Indianapolis Center
Wed 02:51:54 AM 39.3569 -82.7150 346° North 158 182 8,000  Level Indianapolis Center
Wed 02:52:55 AM 39.3972 -82.7347 339° North 155 178 8,000  Level Indianapolis Center
Wed 02:53:55 AM 39.4389 -82.7528 341° North 156 180 8,000 -300 Level Indianapolis Center
Wed 02:54:55 AM 39.4822 -82.7742 339° North 162 186 7,400 -650 Descending Indianapolis Center
Wed 02:55:55 AM 39.5272 -82.7964 339° North 168 193 6,700 -850 Descending Indianapolis Center
Wed 02:56:55 AM 39.5772 -82.8169 342° North 181 208 5,700 -950 Descending Indianapolis Center
Wed 02:57:55 AM 39.6267 -82.8403 340° North 186 214 4,800 -843 Descending Indianapolis Center
Wed 02:58:56 AM 39.6747 -82.8611 342° North 182 209 4,000 -843 Descending Indianapolis Center
Wed 02:59:56 AM 39.7208 -82.8883 336° Northwest 180 207 3,100 -900 Descending Indianapolis Center
Wed 03:00:56 AM 39.7633 -82.9253 326° Northwest 183 211 2,200 -950 Descending Indianapolis Center
Wed 03:01:56 AM 39.7967 -82.9503 330° Northwest 155 178 1,200 -1,000 Descending Indianapolis Center
Wed 03:03:00 AM 39.8000 -82.9167 339° North  Level FlightAware Approximate
Wed 03:10:00 AM 39.8138 -82.9278 339° North  Level Estimated

Login

Don't have an account? Register now (free) for customized features, flight alerts, and more!